createdAt,value
2018-05-13T00:00:55.451Z,10.50
2018-05-13T00:03:22.446Z,10.10
2018-05-13T00:05:49.464Z,11.90
2018-05-13T00:08:15.731Z,10.30
2018-05-13T00:10:42.047Z,11.47
2018-05-13T00:13:08.339Z,10.07
2018-05-13T00:15:34.689Z,11.57
2018-05-13T00:18:01.952Z,11.60
2018-05-13T00:20:28.951Z,11.17
2018-05-13T00:22:55.580Z,9.60
2018-05-13T00:25:21.850Z,11.23
2018-05-13T00:27:48.186Z,11.70
2018-05-13T00:30:14.458Z,11.03
2018-05-13T00:32:41.496Z,12.07
2018-05-13T00:35:07.767Z,12.93
2018-05-13T00:37:34.046Z,12.30
2018-05-13T00:40:00.336Z,12.53
2018-05-13T00:42:27.036Z,13.20
2018-05-13T00:44:54.055Z,13.03
2018-05-13T00:47:21.071Z,14.00
2018-05-13T00:49:48.056Z,12.40
2018-05-13T00:52:14.332Z,11.93
2018-05-13T00:54:52.706Z,8.10
2018-05-13T00:57:18.995Z,11.33
2018-05-13T00:59:45.713Z,11.23
2018-05-13T01:02:11.996Z,11.90
2018-05-13T01:04:39.030Z,11.83
2018-05-13T01:07:05.640Z,11.07
2018-05-13T01:09:31.966Z,10.10
2018-05-13T01:11:58.215Z,9.63
2018-05-13T01:14:24.893Z,12.33
2018-05-13T01:16:51.175Z,11.07
2018-05-13T01:19:17.485Z,10.20
2018-05-13T01:21:44.492Z,12.30
2018-05-13T01:24:10.757Z,10.40
2018-05-13T01:26:37.415Z,11.07
2018-05-13T01:29:04.521Z,11.07
2018-05-13T01:31:30.781Z,11.63
2018-05-13T01:33:57.413Z,10.97
2018-05-13T01:36:23.683Z,11.93
2018-05-13T01:38:50.687Z,10.67
2018-05-13T01:41:17.351Z,12.50
2018-05-13T01:43:43.638Z,12.10
2018-05-13T01:46:10.701Z,11.30
2018-05-13T01:48:37.678Z,11.20
2018-05-13T01:51:04.055Z,11.80
2018-05-13T01:53:30.297Z,9.77
2018-05-13T01:55:57.346Z,8.90
2018-05-13T01:58:23.973Z,9.73
2018-05-13T02:00:50.196Z,9.60
2018-05-13T02:03:17.308Z,11.20
2018-05-13T02:05:43.568Z,8.50
2018-05-13T02:08:09.852Z,9.30
2018-05-13T02:10:36.065Z,8.57
2018-05-13T02:13:03.083Z,9.83
2018-05-13T02:15:29.278Z,8.60
2018-05-13T02:17:56.277Z,8.33
2018-05-13T02:20:22.466Z,8.23
2018-05-13T02:22:49.428Z,9.20
2018-05-13T02:25:16.367Z,8.07
2018-05-13T02:27:43.381Z,8.10
2018-05-13T02:30:09.601Z,9.93
2018-05-13T02:32:35.901Z,9.37
2018-05-13T02:35:02.872Z,9.63
2018-05-13T02:37:29.148Z,8.40
2018-05-13T02:39:55.393Z,10.23
2018-05-13T02:42:21.992Z,8.57
2018-05-13T02:44:48.968Z,8.50
2018-05-13T02:47:15.233Z,9.57
2018-05-13T02:49:41.893Z,7.37
2018-05-13T02:52:08.918Z,7.87
2018-05-13T02:54:35.188Z,7.27
2018-05-13T02:57:02.143Z,7.70
2018-05-13T02:59:29.148Z,7.37
2018-05-13T03:01:55.378Z,6.93
2018-05-13T03:04:22.013Z,7.63
2018-05-13T03:06:48.275Z,6.90
2018-05-13T03:09:14.509Z,7.67
2018-05-13T03:11:40.787Z,6.60
2018-05-13T03:14:07.832Z,8.13
2018-05-13T03:16:34.806Z,8.67
2018-05-13T03:19:01.147Z,8.27
2018-05-13T03:21:27.738Z,5.90
2018-05-13T03:23:54.007Z,6.60
2018-05-13T03:26:21.004Z,8.80
2018-05-13T03:28:47.276Z,8.27
2018-05-13T03:31:13.557Z,8.47
2018-05-13T03:33:39.804Z,8.40
2018-05-13T03:36:06.072Z,7.93
2018-05-13T03:38:32.342Z,7.47
2018-05-13T03:40:59.318Z,7.47
2018-05-13T03:43:25.532Z,8.67
2018-05-13T03:45:52.512Z,8.33
2018-05-13T03:48:18.752Z,8.23
2018-05-13T03:50:45.749Z,8.20
2018-05-13T03:53:12.022Z,8.63
2018-05-13T03:55:38.636Z,9.60
2018-05-13T03:58:05.627Z,7.27
2018-05-13T04:00:31.981Z,9.60
2018-05-13T04:02:58.229Z,8.97
2018-05-13T04:05:25.248Z,6.87
2018-05-13T04:11:15.547Z,9.70
2018-05-13T04:13:53.862Z,9.93
2018-05-13T04:16:20.532Z,7.67
2018-05-13T04:18:47.488Z,7.50
2018-05-13T04:21:13.741Z,8.60
2018-05-13T04:23:39.989Z,7.77
2018-05-13T04:26:06.638Z,7.67
2018-05-13T04:28:33.268Z,9.13
2018-05-13T04:31:00.299Z,7.90
2018-05-13T04:33:26.544Z,8.40
2018-05-13T04:35:52.787Z,9.03
2018-05-13T04:38:19.002Z,8.27
2018-05-13T04:40:45.224Z,7.23
2018-05-13T04:43:11.507Z,8.40
2018-05-13T04:45:38.462Z,8.60
2018-05-13T04:48:05.477Z,7.00
2018-05-13T04:50:32.457Z,8.33
2018-05-13T04:52:58.691Z,7.27
2018-05-13T04:55:24.969Z,7.23
2018-05-13T04:57:51.222Z,7.77
2018-05-13T05:00:17.491Z,7.87
2018-05-13T05:02:44.111Z,7.10
2018-05-13T05:05:10.372Z,7.73
2018-05-13T05:07:36.617Z,8.97
2018-05-13T05:10:02.917Z,7.17
2018-05-13T05:12:29.878Z,10.10
2018-05-13T05:17:25.878Z,8.70
2018-05-13T05:19:52.918Z,10.30
2018-05-13T05:22:19.889Z,10.00
2018-05-13T05:24:46.088Z,7.90
2018-05-13T05:27:12.335Z,8.47
2018-05-13T05:29:38.982Z,7.97
2018-05-13T05:32:05.991Z,6.33
2018-05-13T05:34:32.971Z,7.60
2018-05-13T05:36:59.228Z,6.80
2018-05-13T05:39:26.188Z,6.50
2018-05-13T05:41:53.186Z,6.67
2018-05-13T05:44:20.140Z,8.13
2018-05-13T05:46:46.371Z,7.80
2018-05-13T05:49:13.364Z,6.20
2018-05-13T05:51:40.012Z,7.93
2018-05-13T05:54:07.008Z,6.63
2018-05-13T05:56:34.042Z,7.50
2018-05-13T05:59:00.298Z,9.50
2018-05-13T06:01:27.641Z,7.93
2018-05-13T06:03:53.889Z,9.17
2018-05-13T06:06:20.539Z,7.00
2018-05-13T06:08:46.835Z,7.87
2018-05-13T06:11:13.824Z,6.57
2018-05-13T06:13:41.187Z,8.27
2018-05-13T06:16:07.784Z,8.67
2018-05-13T06:18:34.788Z,7.93
2018-05-13T06:21:01.053Z,8.93
2018-05-13T06:23:27.355Z,7.50
2018-05-13T06:25:54.025Z,7.83
2018-05-13T06:28:20.242Z,8.77
2018-05-13T06:30:46.497Z,7.97
2018-05-13T06:33:12.723Z,10.50
2018-05-13T06:35:39.370Z,9.10
2018-05-13T06:38:05.993Z,7.83
2018-05-13T06:40:32.640Z,9.23
2018-05-13T06:42:58.889Z,9.37
2018-05-13T06:45:25.185Z,7.33
2018-05-13T06:47:52.204Z,9.33
2018-05-13T06:50:18.477Z,9.30
2018-05-13T06:52:44.775Z,7.30
2018-05-13T06:55:11.495Z,11.70
2018-05-13T06:57:38.168Z,8.03
2018-05-13T07:00:04.428Z,7.27
2018-05-13T07:02:31.069Z,9.83
2018-05-13T07:04:58.039Z,10.03
2018-05-13T07:07:24.692Z,7.87
2018-05-13T07:09:50.988Z,6.40
2018-05-13T07:12:17.660Z,6.17
2018-05-13T07:14:43.884Z,10.50
2018-05-13T07:17:11.003Z,5.93
2018-05-13T07:19:37.713Z,9.33
2018-05-13T07:22:03.985Z,9.47
2018-05-13T07:24:30.313Z,6.80
2018-05-13T07:26:56.540Z,8.30
2018-05-13T07:29:23.189Z,6.77
2018-05-13T07:31:49.440Z,8.27
2018-05-13T07:34:16.125Z,7.87
2018-05-13T07:36:43.121Z,7.47
2018-05-13T07:39:09.739Z,7.40
2018-05-13T07:41:36.030Z,7.90
2018-05-13T07:44:02.309Z,8.53
2018-05-13T07:46:28.930Z,8.37
2018-05-13T07:48:55.953Z,7.73
2018-05-13T07:51:22.163Z,7.47
2018-05-13T07:53:48.409Z,8.33
2018-05-13T07:56:14.644Z,8.83
2018-05-13T07:58:40.956Z,7.90
2018-05-13T08:01:07.220Z,7.60
2018-05-13T08:03:33.491Z,10.07
2018-05-13T08:05:59.754Z,10.77
2018-05-13T08:08:26.796Z,11.60
2018-05-13T08:10:53.800Z,9.47
2018-05-13T08:13:20.100Z,7.87
2018-05-13T08:15:46.351Z,8.13
2018-05-13T08:18:12.641Z,7.83
2018-05-13T08:20:38.901Z,9.83
2018-05-13T08:23:05.905Z,10.10
2018-05-13T08:25:32.158Z,8.10
2018-05-13T08:27:58.381Z,9.83
2018-05-13T08:30:25.413Z,8.83
2018-05-13T08:32:51.643Z,10.10
2018-05-13T08:35:17.926Z,9.90
2018-05-13T08:37:44.199Z,10.47
2018-05-13T08:40:10.845Z,10.63
2018-05-13T08:42:37.099Z,8.87
2018-05-13T08:45:03.383Z,10.33
2018-05-13T08:47:30.369Z,10.87
2018-05-13T08:49:56.643Z,8.97
2018-05-13T08:52:22.925Z,10.13
2018-05-13T08:54:49.952Z,9.20
2018-05-13T08:57:16.209Z,8.90
2018-05-13T08:59:53.174Z,11.53
2018-05-13T09:02:19.416Z,9.30
2018-05-13T09:04:46.378Z,9.90
2018-05-13T09:07:13.389Z,9.27
2018-05-13T09:09:39.683Z,10.63
2018-05-13T09:12:06.340Z,11.77
2018-05-13T09:14:32.585Z,8.27
2018-05-13T09:16:58.814Z,11.23
2018-05-13T09:19:25.042Z,11.47
2018-05-13T09:21:51.681Z,13.43
2018-05-13T09:24:17.961Z,17.67
2018-05-13T09:26:44.201Z,29.10
2018-05-13T09:29:10.458Z,14.87
2018-05-13T09:31:36.796Z,12.80
2018-05-13T09:34:03.450Z,11.27
2018-05-13T09:36:30.469Z,13.73
2018-05-13T09:38:57.208Z,10.53
2018-05-13T09:41:23.449Z,11.47
2018-05-13T09:43:49.680Z,9.53
2018-05-13T09:46:16.726Z,13.07
2018-05-13T09:48:43.047Z,13.30
2018-05-13T09:51:09.379Z,16.30
2018-05-13T09:53:35.552Z,11.07
2018-05-13T09:56:02.161Z,12.93
2018-05-13T09:58:29.151Z,14.23
2018-05-13T10:00:55.426Z,11.83
2018-05-13T10:03:22.389Z,10.40
2018-05-13T10:05:48.655Z,11.63
2018-05-13T10:08:15.302Z,12.33
2018-05-13T10:10:41.594Z,11.03
2018-05-13T10:13:08.635Z,13.90
2018-05-13T10:15:35.234Z,14.90
2018-05-13T10:18:01.509Z,12.83
2018-05-13T10:20:28.459Z,18.50
2018-05-13T10:22:54.758Z,12.37
2018-05-13T10:25:22.140Z,11.30
2018-05-13T10:27:48.416Z,16.70
2018-05-13T10:30:15.370Z,15.90
2018-05-13T10:32:42.399Z,14.90
2018-05-13T10:35:08.911Z,11.90
2018-05-13T10:37:35.721Z,18.07
2018-05-13T10:40:02.736Z,15.03
2018-05-13T10:42:30.788Z,13.47
2018-05-13T10:44:57.681Z,15.50
2018-05-13T10:47:25.045Z,13.73
2018-05-13T10:49:52.911Z,14.37
2018-05-13T10:52:19.508Z,16.93
2018-05-13T10:54:46.950Z,11.17
2018-05-13T10:57:13.713Z,16.00
2018-05-13T10:59:40.245Z,13.07
2018-05-13T11:02:06.603Z,13.53
2018-05-13T11:04:33.099Z,15.77
2018-05-13T11:06:59.863Z,15.10
2018-05-13T11:09:26.939Z,19.17
2018-05-13T11:11:54.031Z,13.37
2018-05-13T11:14:20.934Z,12.93
2018-05-13T11:16:48.696Z,12.70
2018-05-13T11:19:15.816Z,13.07
2018-05-13T11:21:42.462Z,16.73
2018-05-13T11:24:09.475Z,17.70
2018-05-13T11:26:36.500Z,16.57
2018-05-13T11:29:02.782Z,16.27
2018-05-13T11:31:29.097Z,12.27
2018-05-13T11:33:56.036Z,15.70
2018-05-13T11:36:22.356Z,14.23
2018-05-13T11:38:48.606Z,12.13
2018-05-13T11:41:15.287Z,15.87
2018-05-13T11:43:42.301Z,15.03
2018-05-13T11:46:08.960Z,15.77
2018-05-13T11:48:35.979Z,12.80
2018-05-13T11:51:03.046Z,16.03
2018-05-13T11:53:29.272Z,14.03
2018-05-13T11:55:56.276Z,17.47
2018-05-13T11:58:23.340Z,20.33
2018-05-13T12:00:49.587Z,20.80
2018-05-13T12:03:15.934Z,16.77
2018-05-13T12:08:13.905Z,18.30
2018-05-13T12:10:40.185Z,20.50
2018-05-13T12:13:06.796Z,19.47
2018-05-13T12:15:33.115Z,19.93
2018-05-13T12:17:59.387Z,21.20
2018-05-13T12:20:26.454Z,19.67
2018-05-13T12:22:52.730Z,20.30
2018-05-13T12:25:19.055Z,20.57
2018-05-13T12:27:45.336Z,21.77
2018-05-13T12:30:12.311Z,20.37
2018-05-13T12:32:39.296Z,20.43
2018-05-13T12:35:05.566Z,19.80
2018-05-13T12:37:31.887Z,22.20
2018-05-13T12:39:58.495Z,22.47
2018-05-13T12:42:24.831Z,22.07
2018-05-13T12:44:51.786Z,20.93
2018-05-13T12:47:18.074Z,21.33
2018-05-13T12:49:44.366Z,20.80
2018-05-13T12:52:11.017Z,24.63
2018-05-13T12:54:37.440Z,20.53
2018-05-13T12:57:03.661Z,19.83
2018-05-13T12:59:30.662Z,19.60
2018-05-13T13:01:56.932Z,18.37
2018-05-13T13:04:23.192Z,14.67
2018-05-13T13:06:49.472Z,14.63
2018-05-13T13:09:15.717Z,18.13
2018-05-13T13:11:41.915Z,14.70
2018-05-13T13:14:08.171Z,13.77
2018-05-13T13:16:34.451Z,15.30
2018-05-13T13:19:01.556Z,17.67
2018-05-13T13:21:27.820Z,14.30
2018-05-13T13:23:54.087Z,14.63
2018-05-13T13:26:21.081Z,15.07
2018-05-13T13:28:47.403Z,15.60
2018-05-13T13:31:13.727Z,16.97
2018-05-13T13:33:39.956Z,17.97
2018-05-13T13:36:06.255Z,18.00
2018-05-13T13:38:32.514Z,17.83
2018-05-13T13:40:59.216Z,21.17
2018-05-13T13:43:25.511Z,20.33
2018-05-13T13:45:52.515Z,18.47
2018-05-13T13:48:18.737Z,18.40
2018-05-13T13:50:45.007Z,19.43
2018-05-13T13:53:11.252Z,18.33
2018-05-13T13:55:37.475Z,16.80
2018-05-13T13:58:03.791Z,17.80
2018-05-13T14:00:30.158Z,17.27
2018-05-13T14:02:57.218Z,16.30
2018-05-13T14:05:23.532Z,19.90
2018-05-13T14:07:51.275Z,16.53
2018-05-13T14:10:17.473Z,18.00
2018-05-13T14:12:44.248Z,18.63
2018-05-13T14:15:10.531Z,17.97
2018-05-13T14:17:36.820Z,18.77
2018-05-13T14:20:03.846Z,21.50
2018-05-13T14:22:30.086Z,24.17
2018-05-13T14:24:57.056Z,21.23
2018-05-13T14:27:23.320Z,18.80
2018-05-13T14:29:50.345Z,21.20
2018-05-13T14:32:16.613Z,22.43
2018-05-13T14:34:43.287Z,25.87
2018-05-13T14:37:09.545Z,26.43
2018-05-13T14:39:36.562Z,27.17
2018-05-13T14:42:02.807Z,24.33
2018-05-13T14:44:29.116Z,24.77
2018-05-13T14:46:55.347Z,24.57
2018-05-13T14:49:22.406Z,25.43
2018-05-13T14:51:49.291Z,22.07
2018-05-13T14:54:16.338Z,25.53
2018-05-13T14:56:43.362Z,26.23
2018-05-13T14:59:09.647Z,23.77
2018-05-13T15:01:36.595Z,25.17
2018-05-13T15:04:04.150Z,28.37
2018-05-13T15:06:30.796Z,27.40
2018-05-13T15:08:57.443Z,29.67
2018-05-13T15:11:24.471Z,29.60
2018-05-13T15:13:50.723Z,26.23
2018-05-13T15:16:17.428Z,29.23
2018-05-13T15:18:44.048Z,28.70
2018-05-13T15:21:10.672Z,28.60
2018-05-13T15:23:37.681Z,30.93
2018-05-13T15:26:04.000Z,29.70
2018-05-13T15:28:31.017Z,28.70
2018-05-13T15:30:58.036Z,29.87
2018-05-13T15:33:24.317Z,30.03
2018-05-13T15:35:50.988Z,31.90
2018-05-13T15:38:17.646Z,32.17
2018-05-13T15:40:43.931Z,29.03
2018-05-13T15:43:11.081Z,35.77
2018-05-13T15:45:38.024Z,35.33
2018-05-13T15:48:05.084Z,33.47
2018-05-13T15:50:31.761Z,34.27
2018-05-13T15:52:58.478Z,36.53
2018-05-13T15:55:25.470Z,40.97
2018-05-13T15:57:51.823Z,35.33
2018-05-13T16:00:18.112Z,27.17
2018-05-13T16:02:44.833Z,37.13
2018-05-13T16:05:11.107Z,39.27
2018-05-13T16:07:37.408Z,34.60
2018-05-13T16:10:03.714Z,35.17
2018-05-13T16:12:30.017Z,35.77
2018-05-13T16:14:56.694Z,38.67
2018-05-13T16:17:24.077Z,30.57
2018-05-13T16:19:50.622Z,41.10
2018-05-13T16:22:16.912Z,36.07
2018-05-13T16:24:43.958Z,36.93
2018-05-13T16:27:10.238Z,40.47
2018-05-13T16:29:38.218Z,38.97
2018-05-13T16:32:05.654Z,42.70
2018-05-13T16:34:32.997Z,37.73
2018-05-13T16:36:59.908Z,39.30
2018-05-13T16:39:26.878Z,36.53
2018-05-13T16:41:54.692Z,37.93
2018-05-13T16:44:21.768Z,40.43
2018-05-13T16:46:48.051Z,38.13
2018-05-13T16:49:15.711Z,41.27
2018-05-13T16:51:42.770Z,39.37
2018-05-13T16:54:09.444Z,39.57
2018-05-13T16:56:36.871Z,39.93
2018-05-13T16:59:03.945Z,35.73
2018-05-13T17:01:30.208Z,35.80
2018-05-13T17:03:56.497Z,32.53
2018-05-13T17:06:23.476Z,38.53
2018-05-13T17:08:49.821Z,36.97
2018-05-13T17:11:17.757Z,35.70
2018-05-13T17:13:44.827Z,34.87
2018-05-13T17:16:11.861Z,33.90
2018-05-13T17:18:38.506Z,30.10
2018-05-13T17:21:05.504Z,36.37
2018-05-13T17:23:31.889Z,35.77
2018-05-13T17:25:58.108Z,36.83
2018-05-13T17:28:24.412Z,34.60
2018-05-13T17:30:51.427Z,31.60
2018-05-13T17:33:18.425Z,25.63
2018-05-13T17:35:44.685Z,33.80
2018-05-13T17:38:10.968Z,34.03
2018-05-13T17:40:38.023Z,36.47
2018-05-13T17:43:05.033Z,36.57
2018-05-13T17:45:32.234Z,38.97
2018-05-13T17:47:58.559Z,36.27
2018-05-13T17:50:25.618Z,35.43
2018-05-13T17:52:52.618Z,34.07
2018-05-13T17:55:19.614Z,34.80
2018-05-13T17:57:46.306Z,34.33
2018-05-13T18:00:12.592Z,36.40
2018-05-13T18:02:38.848Z,38.37
2018-05-13T18:05:05.875Z,29.73
2018-05-13T18:07:32.259Z,42.27
2018-05-13T18:09:58.545Z,38.80
2018-05-13T18:12:24.872Z,43.13
2018-05-13T18:14:51.187Z,38.20
2018-05-13T18:17:18.757Z,33.93
2018-05-13T18:19:45.085Z,26.60
2018-05-13T18:22:11.417Z,37.70
2018-05-13T18:24:37.771Z,45.93
2018-05-13T18:27:04.705Z,41.97
2018-05-13T18:29:31.193Z,50.97
2018-05-13T18:31:57.508Z,53.07
2018-05-13T18:34:23.812Z,8.93
2018-05-13T18:36:52.665Z,32.30
2018-05-13T18:39:20.093Z,26.80
2018-05-13T18:41:46.371Z,31.73
2018-05-13T18:44:14.429Z,4.97
2018-05-13T18:46:41.297Z,30.90
2018-05-13T18:49:07.593Z,23.40
2018-05-13T18:51:34.308Z,24.83
2018-05-13T18:54:02.804Z,20.53
2018-05-13T18:56:30.232Z,23.87
2018-05-13T18:58:57.950Z,11.73
2018-05-13T19:01:25.869Z,6.93
2018-05-13T19:03:52.854Z,7.70
2018-05-13T19:06:19.389Z,15.73
2018-05-13T19:08:47.064Z,5.17
2018-05-13T19:11:23.224Z,8.13
2018-05-13T19:13:50.702Z,16.00
2018-05-13T19:16:17.080Z,19.53
2018-05-13T19:18:44.290Z,15.60
2018-05-13T19:21:10.564Z,26.70
2018-05-13T19:23:37.603Z,11.60
2018-05-13T19:26:03.883Z,21.90
2018-05-13T19:28:30.145Z,11.83
2018-05-13T19:30:57.678Z,16.70
2018-05-13T19:33:24.653Z,10.90
2018-05-13T19:35:50.963Z,12.97
2018-05-13T19:38:18.223Z,11.33
2018-05-13T19:40:44.733Z,8.03
2018-05-13T19:43:11.570Z,9.80
2018-05-13T19:45:38.277Z,9.17
2018-05-13T19:48:06.107Z,7.63
2018-05-13T19:50:33.893Z,9.90
2018-05-13T19:53:02.281Z,10.13
2018-05-13T19:55:29.269Z,11.13
2018-05-13T19:57:57.339Z,11.40
2018-05-13T20:00:24.508Z,11.57
2018-05-13T20:02:51.896Z,16.60
2018-05-13T20:05:19.652Z,16.13
2018-05-13T20:07:45.968Z,18.00
2018-05-13T20:10:12.272Z,29.70
2018-05-13T20:12:39.698Z,26.60
2018-05-13T20:15:06.707Z,41.60
2018-05-13T20:17:34.925Z,21.37
2018-05-13T20:20:03.183Z,35.43
2018-05-13T20:22:31.066Z,21.30
2018-05-13T20:24:57.809Z,33.63
2018-05-13T20:27:24.884Z,23.37
2018-05-13T20:29:52.846Z,50.27
2018-05-13T20:32:19.098Z,26.93
2018-05-13T20:34:46.778Z,34.77
2018-05-13T20:37:13.405Z,45.70
2018-05-13T20:39:39.668Z,43.10
2018-05-13T20:42:06.308Z,37.53
2018-05-13T20:44:32.609Z,34.47
2018-05-13T20:46:59.044Z,32.40
2018-05-13T20:49:25.452Z,42.00
2018-05-13T20:51:52.084Z,35.27
2018-05-13T20:54:18.378Z,17.73
2018-05-13T20:56:45.404Z,35.60
2018-05-13T20:59:12.434Z,34.67
2018-05-13T21:01:39.366Z,63.13
2018-05-13T21:04:05.616Z,36.60
2018-05-13T21:06:31.925Z,40.03
2018-05-13T21:08:58.184Z,18.53
2018-05-13T21:11:24.483Z,78.50
2018-05-13T21:13:50.739Z,25.93
2018-05-13T21:16:17.031Z,37.80
2018-05-13T21:18:44.330Z,27.47
2018-05-13T21:21:12.405Z,29.40
2018-05-13T21:23:38.650Z,34.00
2018-05-13T21:26:05.389Z,33.77
2018-05-13T21:28:33.489Z,42.73
2018-05-13T21:30:59.791Z,30.27
2018-05-13T21:33:26.544Z,29.03
2018-05-13T21:35:57.560Z,47.40
2018-05-13T21:38:24.883Z,23.90
2018-05-13T21:40:51.149Z,37.13
2018-05-13T21:43:18.138Z,44.50
2018-05-13T21:45:44.935Z,60.60
2018-05-13T21:48:11.831Z,28.00
2018-05-13T21:50:38.841Z,35.20
2018-05-13T21:53:05.083Z,20.70
2018-05-13T21:55:32.123Z,26.33
2018-05-13T21:57:58.383Z,43.30
2018-05-13T22:00:25.375Z,65.23
2018-05-13T22:02:52.364Z,44.53
2018-05-13T22:05:18.644Z,33.63
2018-05-13T22:07:44.893Z,112.53
2018-05-13T22:10:11.149Z,155.60
2018-05-13T22:12:37.743Z,33.30
2018-05-13T22:15:04.704Z,317.63
2018-05-13T22:17:31.783Z,239.90
2018-05-13T22:19:58.772Z,49.63
2018-05-13T22:22:24.992Z,35.77
2018-05-13T22:24:51.984Z,76.70
2018-05-13T22:27:18.960Z,58.27
2018-05-13T22:29:45.954Z,21.67
2018-05-13T22:32:12.528Z,94.63
2018-05-13T22:34:39.528Z,26.77
2018-05-13T22:37:06.124Z,126.17
2018-05-13T22:39:33.179Z,25.47
2018-05-13T22:42:00.165Z,102.90
2018-05-13T22:44:33.125Z,51.77
2018-05-13T22:46:59.808Z,55.27
2018-05-13T22:49:26.039Z,45.77
2018-05-13T22:51:52.284Z,102.60
2018-05-13T22:54:20.506Z,134.97
2018-05-13T22:56:47.506Z,96.97
2018-05-13T22:59:13.734Z,71.50
2018-05-13T23:01:40.033Z,45.50
2018-05-13T23:04:07.145Z,57.73
2018-05-13T23:06:33.374Z,82.93
2018-05-13T23:08:59.634Z,68.33
2018-05-13T23:11:26.045Z,25.03
2018-05-13T23:13:52.320Z,117.87
2018-05-13T23:16:19.305Z,102.40
2018-05-13T23:18:45.915Z,26.57
2018-05-13T23:21:13.678Z,19.10
2018-05-13T23:23:39.999Z,31.03
2018-05-13T23:26:06.224Z,63.80
2018-05-13T23:28:32.555Z,36.37
2018-05-13T23:30:58.714Z,20.27
2018-05-13T23:33:24.941Z,35.03
2018-05-13T23:35:51.184Z,22.03
2018-05-13T23:38:17.437Z,20.70
2018-05-13T23:40:43.680Z,25.30
2018-05-13T23:43:10.719Z,20.73
2018-05-13T23:45:37.705Z,24.17
2018-05-13T23:48:04.665Z,29.10
2018-05-13T23:50:30.916Z,22.47
2018-05-13T23:52:57.188Z,22.23
2018-05-13T23:55:23.420Z,22.93
2018-05-13T23:57:49.681Z,29.03
